createdAt,value
2019-02-09T00:00:31.936Z,22.73
2019-02-09T00:03:33.877Z,26.23
2019-02-09T00:06:35.953Z,26.67
2019-02-09T00:09:37.834Z,25.73
2019-02-09T00:12:39.772Z,28.00
2019-02-09T00:15:41.628Z,25.93
2019-02-09T00:18:43.610Z,25.77
2019-02-09T00:21:45.486Z,23.03
2019-02-09T00:24:47.461Z,23.10
2019-02-09T00:27:49.340Z,24.03
2019-02-09T00:30:51.346Z,24.60
2019-02-09T00:33:53.242Z,23.73
2019-02-09T00:36:55.140Z,27.90
2019-02-09T00:39:57.023Z,22.83
2019-02-09T00:42:59.030Z,22.43
2019-02-09T00:46:01.380Z,22.33
2019-02-09T00:49:03.354Z,21.83
2019-02-09T00:52:06.421Z,21.83
2019-02-09T00:55:11.440Z,22.90
2019-02-09T00:58:13.342Z,21.40
2019-02-09T01:01:15.327Z,20.53
2019-02-09T01:04:17.266Z,21.07
2019-02-09T01:07:19.274Z,19.60
2019-02-09T01:10:21.413Z,21.83
2019-02-09T01:13:23.329Z,19.17
2019-02-09T01:16:26.313Z,20.50
2019-02-09T01:19:28.253Z,18.50
2019-02-09T01:22:30.305Z,17.13
2019-02-09T01:25:32.159Z,16.33
2019-02-09T01:28:34.294Z,15.67
2019-02-09T01:31:36.292Z,16.10
2019-02-09T01:34:38.238Z,15.77
2019-02-09T01:37:40.214Z,15.27
2019-02-09T01:40:42.148Z,15.23
2019-02-09T01:43:44.137Z,16.27
2019-02-09T01:46:46.585Z,15.70
2019-02-09T01:49:48.507Z,15.00
2019-02-09T01:52:50.369Z,13.80
2019-02-09T01:55:52.270Z,14.50
2019-02-09T01:58:54.210Z,14.37
2019-02-09T02:01:56.161Z,14.90
2019-02-09T02:04:58.157Z,14.60
2019-02-09T02:08:00.197Z,16.60
2019-02-09T02:11:02.294Z,14.10
2019-02-09T02:14:04.439Z,14.03
2019-02-09T02:17:06.682Z,15.40
2019-02-09T02:20:18.189Z,15.07
2019-02-09T02:23:20.140Z,13.43
2019-02-09T02:26:22.119Z,14.10
2019-02-09T02:29:24.024Z,13.90
2019-02-09T02:32:26.073Z,13.10
2019-02-09T02:35:28.029Z,13.53
2019-02-09T02:38:29.974Z,13.60
2019-02-09T02:41:31.916Z,16.10
2019-02-09T02:44:33.906Z,15.63
2019-02-09T02:47:37.644Z,18.13
2019-02-09T02:50:39.599Z,17.00
2019-02-09T02:53:41.634Z,19.57
2019-02-09T02:56:43.556Z,21.23
2019-02-09T02:59:45.480Z,22.67
2019-02-09T03:02:47.537Z,22.93
2019-02-09T03:05:49.435Z,22.37
2019-02-09T03:08:51.450Z,21.70
2019-02-09T03:11:53.356Z,24.97
2019-02-09T03:14:55.375Z,24.70
2019-02-09T03:17:57.765Z,23.07
2019-02-09T03:20:59.683Z,22.63
2019-02-09T03:24:01.579Z,24.57
2019-02-09T03:27:03.483Z,26.03
2019-02-09T03:30:08.966Z,25.53
2019-02-09T03:33:10.918Z,23.70
2019-02-09T03:36:12.752Z,24.40
2019-02-09T03:39:14.743Z,25.87
2019-02-09T03:42:16.666Z,23.50
2019-02-09T03:45:21.410Z,19.63
2019-02-09T03:48:24.766Z,19.40
2019-02-09T03:51:26.689Z,17.73
2019-02-09T03:54:28.546Z,18.10
2019-02-09T03:57:30.477Z,19.70
2019-02-09T04:00:32.647Z,19.37
2019-02-09T04:03:34.670Z,20.87
2019-02-09T04:06:36.615Z,20.30
2019-02-09T04:09:38.595Z,20.13
2019-02-09T04:12:40.701Z,19.33
2019-02-09T04:15:42.861Z,20.27
2019-02-09T04:18:44.779Z,22.37
2019-02-09T04:21:46.700Z,23.70
2019-02-09T04:24:48.702Z,24.10
2019-02-09T04:27:50.815Z,23.43
2019-02-09T04:30:52.771Z,23.83
2019-02-09T04:33:54.742Z,22.70
2019-02-09T04:36:56.658Z,20.60
2019-02-09T04:39:58.551Z,22.93
2019-02-09T04:43:01.152Z,22.07
2019-02-09T04:46:03.226Z,22.10
2019-02-09T04:49:05.137Z,22.17
2019-02-09T04:52:07.638Z,21.83
2019-02-09T04:55:15.271Z,18.87
2019-02-09T04:58:17.222Z,20.73
2019-02-09T05:01:19.211Z,19.33
2019-02-09T05:04:21.207Z,20.80
2019-02-09T05:07:23.131Z,20.07
2019-02-09T05:10:25.594Z,19.43
2019-02-09T05:13:27.586Z,28.13
2019-02-09T05:16:29.560Z,20.30
2019-02-09T05:19:31.464Z,19.17
2019-02-09T05:22:33.415Z,15.40
2019-02-09T05:25:35.275Z,13.37
2019-02-09T05:28:37.198Z,12.03
2019-02-09T05:31:39.157Z,12.17
2019-02-09T05:34:41.125Z,12.67
2019-02-09T05:37:43.080Z,11.53
2019-02-09T05:40:45.167Z,14.40
2019-02-09T05:43:47.053Z,13.00
2019-02-09T05:46:48.959Z,12.57
2019-02-09T05:49:50.914Z,12.77
2019-02-09T05:52:52.830Z,11.20
2019-02-09T05:55:54.824Z,13.20
2019-02-09T05:58:56.861Z,12.90
2019-02-09T06:01:58.820Z,13.67
2019-02-09T06:05:00.724Z,12.63
2019-02-09T06:08:03.585Z,13.40
2019-02-09T06:11:05.647Z,13.37
2019-02-09T06:14:07.558Z,14.27
2019-02-09T06:17:09.513Z,13.57
2019-02-09T06:20:14.848Z,13.70
2019-02-09T06:23:16.787Z,12.93
2019-02-09T06:26:18.753Z,14.07
2019-02-09T06:29:20.681Z,11.83
2019-02-09T06:32:22.534Z,10.97
2019-02-09T06:35:24.911Z,13.40
2019-02-09T06:38:26.873Z,12.50
2019-02-09T06:41:29.039Z,12.90
2019-02-09T06:44:30.894Z,12.00
2019-02-09T06:47:32.773Z,13.33
2019-02-09T06:50:34.696Z,12.93
2019-02-09T06:53:36.604Z,14.20
2019-02-09T06:56:38.502Z,13.43
2019-02-09T06:59:40.472Z,14.47
2019-02-09T07:02:42.333Z,14.97
2019-02-09T07:05:44.356Z,15.17
2019-02-09T07:08:46.304Z,16.50
2019-02-09T07:11:48.421Z,16.27
2019-02-09T07:14:50.350Z,15.60
2019-02-09T07:17:52.243Z,15.77
2019-02-09T07:20:54.184Z,16.00
2019-02-09T07:23:56.068Z,14.27
2019-02-09T07:26:58.042Z,13.13
2019-02-09T07:29:59.961Z,12.63
2019-02-09T07:33:02.590Z,14.53
2019-02-09T07:36:04.803Z,13.17
2019-02-09T07:39:07.895Z,14.37
2019-02-09T07:42:09.823Z,17.73
2019-02-09T07:45:18.271Z,16.83
2019-02-09T07:48:20.216Z,19.20
2019-02-09T07:51:22.179Z,18.00
2019-02-09T07:54:24.104Z,17.27
2019-02-09T07:57:26.059Z,18.07
2019-02-09T08:00:30.651Z,17.87
2019-02-09T08:03:32.606Z,19.53
2019-02-09T08:06:34.510Z,20.37
2019-02-09T08:09:36.642Z,20.40
2019-02-09T08:12:38.693Z,20.57
2019-02-09T08:15:40.639Z,20.13
2019-02-09T08:18:42.544Z,21.00
2019-02-09T08:21:44.592Z,19.33
2019-02-09T08:24:46.520Z,20.43
2019-02-09T08:27:49.208Z,19.83
2019-02-09T08:30:51.302Z,18.53
2019-02-09T08:33:53.269Z,19.33
2019-02-09T08:36:55.156Z,19.63
2019-02-09T08:39:58.144Z,20.43
2019-02-09T08:43:00.154Z,19.80
2019-02-09T08:46:02.197Z,19.03
2019-02-09T08:49:05.533Z,18.47
2019-02-09T08:52:07.571Z,19.33
2019-02-09T08:55:09.458Z,18.10
2019-02-09T08:58:11.411Z,17.63
2019-02-09T09:01:13.471Z,20.13
2019-02-09T09:04:15.438Z,20.23
2019-02-09T09:07:17.341Z,19.67
2019-02-09T09:10:28.028Z,20.57
2019-02-09T09:13:30.008Z,22.93
2019-02-09T09:16:31.953Z,21.37
2019-02-09T09:19:33.875Z,21.03
2019-02-09T09:22:35.787Z,21.23
2019-02-09T09:25:37.649Z,22.10
2019-02-09T09:28:39.605Z,21.63
2019-02-09T09:31:41.494Z,22.13
2019-02-09T09:34:43.378Z,24.10
2019-02-09T09:37:45.256Z,22.20
2019-02-09T09:40:47.260Z,22.00
2019-02-09T09:43:49.172Z,21.77
2019-02-09T09:46:51.177Z,22.30
2019-02-09T09:49:53.149Z,26.03
2019-02-09T09:52:55.042Z,20.80
2019-02-09T09:55:56.977Z,22.43
2019-02-09T09:58:58.937Z,22.37
2019-02-09T10:02:02.175Z,21.57
2019-02-09T10:05:06.954Z,21.07
2019-02-09T10:08:08.955Z,19.43
2019-02-09T10:11:10.940Z,20.77
2019-02-09T10:14:12.940Z,18.97
2019-02-09T10:17:15.230Z,19.67
2019-02-09T10:20:19.118Z,19.60
2019-02-09T10:23:21.043Z,19.73
2019-02-09T10:26:22.947Z,18.30
2019-02-09T10:29:24.868Z,19.93
2019-02-09T10:32:26.818Z,18.03
2019-02-09T10:35:28.976Z,18.47
2019-02-09T10:38:30.902Z,17.30
2019-02-09T10:41:32.860Z,11.37
2019-02-09T10:44:34.820Z,12.00
2019-02-09T10:47:37.435Z,12.67
2019-02-09T10:50:45.656Z,11.87
2019-02-09T10:53:47.609Z,9.87
2019-02-09T10:56:49.535Z,8.67
2019-02-09T10:59:51.516Z,8.10
2019-02-09T11:02:53.441Z,8.30
2019-02-09T11:05:55.486Z,9.50
2019-02-09T11:08:57.376Z,8.20
2019-02-09T11:11:59.444Z,7.20
2019-02-09T11:15:01.472Z,5.93
2019-02-09T11:18:05.054Z,6.87
2019-02-09T11:21:06.954Z,8.40
2019-02-09T11:24:08.872Z,7.60
2019-02-09T11:27:11.307Z,7.83
2019-02-09T11:30:22.582Z,7.17
2019-02-09T11:33:24.677Z,8.73
2019-02-09T11:36:26.565Z,9.73
2019-02-09T11:39:28.463Z,9.27
2019-02-09T11:42:30.426Z,9.30
2019-02-09T11:45:35.171Z,9.47
2019-02-09T11:48:37.704Z,10.13
2019-02-09T11:51:39.724Z,10.13
2019-02-09T11:54:41.655Z,9.57
2019-02-09T11:57:43.633Z,9.93
2019-02-09T12:00:48.717Z,11.00
2019-02-09T12:03:50.623Z,9.97
2019-02-09T12:06:52.575Z,11.87
2019-02-09T12:09:54.466Z,14.67
2019-02-09T12:12:56.616Z,14.03
2019-02-09T12:15:58.721Z,13.70
2019-02-09T12:19:00.680Z,13.83
2019-02-09T12:22:03.207Z,15.63
2019-02-09T12:25:08.771Z,15.60
2019-02-09T12:28:12.409Z,14.70
2019-02-09T12:31:14.348Z,15.63
2019-02-09T12:34:16.278Z,15.63
2019-02-09T12:37:18.193Z,14.90
2019-02-09T12:40:26.189Z,16.20
2019-02-09T12:43:28.349Z,15.73
2019-02-09T12:46:30.445Z,14.90
2019-02-09T12:49:33.033Z,13.23
2019-02-09T12:52:34.952Z,11.37
2019-02-09T12:55:36.825Z,9.87
2019-02-09T12:58:38.745Z,8.30
2019-02-09T13:01:40.631Z,7.13
2019-02-09T13:04:42.555Z,6.53
2019-02-09T13:07:44.656Z,8.13
2019-02-09T13:10:46.590Z,7.47
2019-02-09T13:13:48.553Z,6.10
2019-02-09T13:16:50.637Z,7.97
2019-02-09T13:19:52.592Z,6.57
2019-02-09T13:22:55.217Z,6.70
2019-02-09T13:25:57.143Z,6.27
2019-02-09T13:28:59.088Z,6.50
2019-02-09T13:32:01.069Z,6.90
2019-02-09T13:35:04.946Z,6.70
2019-02-09T13:38:07.081Z,6.80
2019-02-09T13:41:09.202Z,6.20
2019-02-09T13:44:11.270Z,7.43
2019-02-09T13:47:13.251Z,6.60
2019-02-09T13:50:25.040Z,7.07
2019-02-09T13:53:28.402Z,7.97
2019-02-09T13:56:30.352Z,7.40
2019-02-09T13:59:32.248Z,7.40
2019-02-09T14:02:34.230Z,7.53
2019-02-09T14:05:36.241Z,8.27
2019-02-09T14:08:38.200Z,7.23
2019-02-09T14:11:40.053Z,7.20
2019-02-09T14:14:42.058Z,8.27
2019-02-09T14:17:44.038Z,6.70
2019-02-09T14:20:45.992Z,7.67
2019-02-09T14:23:47.888Z,7.37
2019-02-09T14:26:49.883Z,6.40
2019-02-09T14:29:51.811Z,6.57
2019-02-09T14:32:54.141Z,6.37
2019-02-09T14:35:55.999Z,6.63
2019-02-09T14:38:57.935Z,7.60
2019-02-09T14:41:59.865Z,7.47
2019-02-09T14:45:02.003Z,6.97
2019-02-09T14:48:03.981Z,6.30
2019-02-09T14:51:05.910Z,6.83
2019-02-09T14:54:07.912Z,7.73
2019-02-09T14:57:09.838Z,10.30
2019-02-09T15:00:17.689Z,10.00
2019-02-09T15:03:25.969Z,11.37
2019-02-09T15:06:23.595Z,10.77
2019-02-09T15:09:25.555Z,11.40
2019-02-09T15:12:27.482Z,11.27
2019-02-09T15:15:35.908Z,11.93
2019-02-09T15:18:37.890Z,14.87
2019-02-09T15:21:39.824Z,13.57
2019-02-09T15:24:41.755Z,12.17
2019-02-09T15:27:43.667Z,11.43
2019-02-09T15:30:46.655Z,10.80
2019-02-09T15:33:48.632Z,10.33
2019-02-09T15:36:50.541Z,9.77
2019-02-09T15:39:52.467Z,11.23
2019-02-09T15:42:54.350Z,10.07
2019-02-09T15:45:56.292Z,9.20
2019-02-09T15:48:58.206Z,10.43
2019-02-09T15:52:00.140Z,11.17
2019-02-09T15:55:04.693Z,10.83
2019-02-09T15:58:06.662Z,11.90
2019-02-09T16:01:08.545Z,13.47
2019-02-09T16:04:17.696Z,15.43
2019-02-09T16:07:16.021Z,13.03
2019-02-09T16:10:20.505Z,14.20
2019-02-09T16:13:22.413Z,13.33
2019-02-09T16:16:24.366Z,13.43
2019-02-09T16:19:26.389Z,14.43
2019-02-09T16:22:28.324Z,15.20
2019-02-09T16:25:30.467Z,15.07
2019-02-09T16:28:32.330Z,17.00
2019-02-09T16:31:35.976Z,19.23
2019-02-09T16:34:38.118Z,16.93
2019-02-09T16:37:40.045Z,16.07
2019-02-09T16:40:41.911Z,17.83
2019-02-09T16:43:43.820Z,14.70
2019-02-09T16:46:45.810Z,16.10
2019-02-09T16:49:49.547Z,20.83
2019-02-09T16:52:52.774Z,22.50
2019-02-09T16:55:55.094Z,21.93
2019-02-09T16:58:57.060Z,21.33
2019-02-09T17:01:59.102Z,19.50
2019-02-09T17:05:01.033Z,20.00
2019-02-09T17:08:05.287Z,20.03
2019-02-09T17:11:07.831Z,21.03
2019-02-09T17:14:09.816Z,19.07
2019-02-09T17:17:11.775Z,17.40
2019-02-09T17:20:14.700Z,17.57
2019-02-09T17:23:16.596Z,17.27
2019-02-09T17:26:19.822Z,15.33
2019-02-09T17:29:21.860Z,15.77
2019-02-09T17:32:23.858Z,18.60
2019-02-09T17:35:26.998Z,19.10
2019-02-09T17:38:31.098Z,22.33
2019-02-09T17:41:34.906Z,23.53
2019-02-09T17:44:38.987Z,22.03
2019-02-09T17:47:41.000Z,24.77
2019-02-09T17:50:42.920Z,21.03
2019-02-09T17:53:44.960Z,21.37
2019-02-09T17:56:46.933Z,19.13
2019-02-09T17:59:48.935Z,18.70
2019-02-09T18:02:50.788Z,16.63
2019-02-09T18:05:52.792Z,12.10
2019-02-09T18:08:55.873Z,11.17
2019-02-09T18:11:57.842Z,10.57
2019-02-09T18:15:01.606Z,10.17
2019-02-09T18:18:04.581Z,10.17
2019-02-09T18:21:08.352Z,11.43
2019-02-09T18:24:10.282Z,9.37
2019-02-09T18:27:12.158Z,9.33
2019-02-09T18:30:26.221Z,10.43
2019-02-09T18:33:31.044Z,10.03
2019-02-09T18:36:33.033Z,12.57
2019-02-09T18:39:34.885Z,9.93
2019-02-09T18:42:36.879Z,9.20
2019-02-09T18:45:39.128Z,8.77
2019-02-09T18:48:41.470Z,14.37
2019-02-09T18:51:43.393Z,13.40
2019-02-09T18:54:45.350Z,14.03
2019-02-09T18:57:48.703Z,11.97
2019-02-09T19:00:50.842Z,11.33
2019-02-09T19:03:53.163Z,11.50
2019-02-09T19:06:55.058Z,10.20
2019-02-09T19:09:58.165Z,9.67
2019-02-09T19:13:00.152Z,9.97
2019-02-09T19:16:02.033Z,11.97
2019-02-09T19:19:05.122Z,12.10
2019-02-09T19:22:07.205Z,11.83
2019-02-09T19:25:13.085Z,11.47
2019-02-09T19:28:15.119Z,11.63
2019-02-09T19:31:23.116Z,10.57
2019-02-09T19:34:25.046Z,11.13
2019-02-09T19:37:26.953Z,11.67
2019-02-09T19:40:28.949Z,11.37
2019-02-09T19:43:33.928Z,13.77
2019-02-09T19:46:37.404Z,13.03
2019-02-09T19:49:39.724Z,14.33
2019-02-09T19:52:42.752Z,14.83
2019-02-09T19:55:44.671Z,14.07
2019-02-09T19:58:46.924Z,16.23
2019-02-09T20:01:49.258Z,15.20
2019-02-09T20:04:51.639Z,15.63
2019-02-09T20:07:55.549Z,15.80
2019-02-09T20:10:57.677Z,15.43
2019-02-09T20:13:59.622Z,15.00
2019-02-09T20:17:01.996Z,15.60
2019-02-09T20:20:09.758Z,15.37
2019-02-09T20:23:12.429Z,14.03
2019-02-09T20:26:16.139Z,17.13
2019-02-09T20:29:18.168Z,17.77
2019-02-09T20:32:20.412Z,15.90
2019-02-09T20:35:27.870Z,16.00
2019-02-09T20:38:28.108Z,14.83
2019-02-09T20:41:31.557Z,15.67
2019-02-09T20:44:35.121Z,15.40
2019-02-09T20:47:39.381Z,15.97
2019-02-09T20:50:42.699Z,16.87
2019-02-09T20:53:44.659Z,16.20
2019-02-09T20:56:46.578Z,17.03
2019-02-09T20:59:48.841Z,16.27
2019-02-09T21:02:51.454Z,16.20
2019-02-09T21:05:54.919Z,16.27
2019-02-09T21:08:58.083Z,16.23
2019-02-09T21:12:00.044Z,15.17
2019-02-09T21:15:01.955Z,13.83
2019-02-09T21:18:06.363Z,12.73
2019-02-09T21:21:08.311Z,13.43
2019-02-09T21:24:10.833Z,14.30
2019-02-09T21:27:14.258Z,14.67
2019-02-09T21:30:20.822Z,14.67
2019-02-09T21:33:22.863Z,15.23
2019-02-09T21:36:25.207Z,14.03
2019-02-09T21:39:33.892Z,13.53
2019-02-09T21:42:33.502Z,12.97
2019-02-09T21:45:44.582Z,13.50
2019-02-09T21:48:41.122Z,12.57
2019-02-09T21:51:43.414Z,13.93
2019-02-09T21:54:45.371Z,13.60
2019-02-09T21:57:49.167Z,11.07
2019-02-09T22:00:55.674Z,9.87
2019-02-09T22:03:58.959Z,11.33
2019-02-09T22:07:00.908Z,11.60
2019-02-09T22:10:06.507Z,11.83
2019-02-09T22:13:08.441Z,10.80
2019-02-09T22:16:11.483Z,10.43
2019-02-09T22:19:13.444Z,8.63
2019-02-09T22:22:15.422Z,6.67
2019-02-09T22:25:25.711Z,6.13
2019-02-09T22:28:27.644Z,6.70
2019-02-09T22:31:29.570Z,4.57
2019-02-09T22:34:31.894Z,5.17
2019-02-09T22:37:33.926Z,5.20
2019-02-09T22:40:40.463Z,5.80
2019-02-09T22:43:42.370Z,6.37
2019-02-09T22:46:44.345Z,7.97
2019-02-09T22:49:46.246Z,6.77
2019-02-09T22:52:48.327Z,6.30
2019-02-09T22:55:50.189Z,6.53
2019-02-09T22:58:52.101Z,6.07
2019-02-09T23:01:54.067Z,5.80
2019-02-09T23:04:56.294Z,6.67
2019-02-09T23:07:58.242Z,7.37
2019-02-09T23:11:00.186Z,7.50
2019-02-09T23:14:02.112Z,7.83
2019-02-09T23:17:03.988Z,6.93
2019-02-09T23:20:07.418Z,6.80
2019-02-09T23:23:09.392Z,8.33
2019-02-09T23:26:12.254Z,6.80
2019-02-09T23:29:14.136Z,7.10
2019-02-09T23:32:16.052Z,6.80
2019-02-09T23:35:17.938Z,7.20
2019-02-09T23:38:19.936Z,6.87
2019-02-09T23:41:21.877Z,7.17
2019-02-09T23:44:23.799Z,7.70
2019-02-09T23:47:25.751Z,8.60
2019-02-09T23:50:27.743Z,8.00
2019-02-09T23:53:29.729Z,6.63
2019-02-09T23:56:31.783Z,7.50
2019-02-09T23:59:33.638Z,7.27
